EKKA/KRP METAR and TAF weather

Enter ICAO airport designator
Station Type Date Time Source
EKKA METAR 2019/10/21 22:30 UTC NOAA

EKKA 212230Z AUTO 02003KT 7000 FEW003/// BKN011/// 09/08 Q1018


Station Type Date Time Source
EKKA Decoded METAR 2019/10/21 22:30 UTC NOAA

Karup, Denmark (EKKA) 56-18N 009-07E 53M
Oct 21, 2019 - 06:30 PM EDT / 2019.10.21 2230 UTC
Wind: from the NNE (020 degrees) at 3 MPH (3 KT):0
Visibility: 4 mile(s):0
Sky conditions: mostly cloudy
Temperature: 48 F (9 C)
Dew Point: 46 F (8 C)
Relative Humidity: 93%
Pressure (altimeter): 30.06 in. Hg (1018 hPa)
ob: EKKA 212230Z AUTO 02003KT 7000 FEW003/// BKN011/// 09/08 Q1018
cycle: 22

Station Type Date Time Source
EKKA TAF 2019/10/21 21:30 UTC NOAA

TAF TAF EKKA 212015Z 2121/2221 06006KT 7000 BKN003
TEMPO 2121/2123 1800 RADZ BR SCT003 BKN020
BECMG 2123/2201 VRB03KT 0300 FG VV001
TEMPO 2201/2207 2000 BR BKN005
BECMG 2207/2209 4000 BR BKN008
BECMG 2209/2212 24010KT 9999 NSW BKN020

Example: see airport list